Time;durP1;ratioP1;P1;durP2;ratioP2;P2;SDS_P1;SDS_P2;PMS_P1;PMS_P2;Temp;Humidity;BMP_temperature;BMP_pressure;BME280_temperature;BME280_humidity;BME280_pressure;Samples;Min_cycle;Max_cycle;Signal;HPM_P1;HPM_P2
2021/10/18 00:00:45;;;;;;;;;;;;;;;;;;5096400;28;19920;-81
2021/10/18 00:03:10;;;;;;;;;;;;;;;;;;5096216;28;19919;-82
2021/10/18 00:05:35;;;;;;;;;;;;;;;;;;5095619;28;20362;-82
2021/10/18 00:08:01;;;;;;;;;;;;;;;;;;5112334;28;19973;-83
2021/10/18 00:10:26;;;;;;;;;;;;;;;;;;5095411;28;19907;-83
2021/10/18 00:12:52;;;;;;;;;;;;;;;;;;5096340;28;19908;-82
2021/10/18 00:15:18;;;;;;;;;;;;;;;;;;5097001;28;20020;-83
2021/10/18 00:17:44;;;;;;;;;;;;;;;;;;5095529;28;19966;-82
2021/10/18 00:20:10;;;;;;;;;;;;;;;;;;5095259;28;19959;-82
2021/10/18 00:22:35;;;;;;;;;;;;;;;;;;5095092;28;20421;-82
2021/10/18 00:25:01;;;;;;;;;;;;;;;;;;5096251;28;19947;-81
2021/10/18 00:27:26;;;;;;;;;;;;;;;;;;5096309;28;19907;-82
2021/10/18 00:29:51;;;;;;;;;;;;;;;;;;5096394;28;20304;-83
2021/10/18 00:32:16;;;;;;;;;;;;;;;;;;5096892;28;19915;-81
2021/10/18 00:34:42;;;;;;;;;;;;;;;;;;5097265;28;19908;-83
2021/10/18 00:37:07;;;;;;;;;;;;;;;;;;5098060;28;19919;-83
2021/10/18 00:39:32;;;;;;;;;;;;;;;;;;5095675;28;20471;-83
2021/10/18 00:41:58;;;;;;;;;;;;;;;;;;5112348;28;19919;-83
2021/10/18 00:44:23;;;;;;;;;;;;;;;;;;5096019;28;19947;-81
2021/10/18 00:46:48;;;;;;;;;;;;;;;;;;5095110;28;19912;-83
2021/10/18 00:49:14;;;;;;;;;;;;;;;;;;5096024;28;20354;-83
2021/10/18 00:51:39;;;;;;;;;;;;;;;;;;5112107;28;19926;-83
2021/10/18 00:54:05;;;;;;;;;;;;;;;;;;5095168;28;19908;-82
2021/10/18 00:56:30;;;;;;;;;;;;;;;;;;5096261;28;19915;-83
2021/10/18 00:58:58;;;;;;;;;;;;;;;;;;5095579;28;19928;-83
2021/10/18 01:01:24;;;;;;;;;;;;;;;;;;5095587;28;20247;-84
2021/10/18 01:03:49;;;;;;;;;;;;;;;;;;5095572;28;19964;-83
2021/10/18 01:06:14;;;;;;;;;;;;;;;;;;5094788;28;19908;-83
2021/10/18 01:08:40;;;;;;;;;;;;;;;;;;5096723;28;20242;-82
2021/10/18 01:11:06;;;;;;;;;;;;;;;;;;5099325;28;20249;-82
2021/10/18 01:13:32;;;;;;;;;;;;;;;;;;5115622;28;19908;-82
2021/10/18 01:16:00;;;;;;;;;;;;;;;;;;5099914;28;19919;-81
2021/10/18 01:18:26;;;;;;;;;;;;;;;;;;5102768;28;20344;-83
2021/10/18 01:20:51;;;;;;;;;;;;;;;;;;5098982;28;19998;-83
2021/10/18 01:23:16;;;;;;;;;;;;;;;;;;5100038;28;19943;-83
2021/10/18 01:25:42;;;;;;;;;;;;;;;;;;5111115;28;19919;-83
2021/10/18 01:28:07;;;;;;;;;;;;;;;;;;5114154;28;19916;-82
2021/10/18 01:30:32;;;;;;;;;;;;;;;;;;5113694;28;19911;-82
2021/10/18 01:32:58;;;;;;;;;;;;;;;;;;5113008;28;19908;-84
2021/10/18 01:35:23;;;;;;;;;;;;;;;;;;5108427;28;19911;-82
2021/10/18 01:37:51;;;;;;;;;;;;;;;;;;5112210;28;19919;-83
2021/10/18 01:40:19;;;;;;;;;;;;;;;;;;5101078;28;19912;-82
2021/10/18 01:42:44;;;;;;;;;;;;;;;;;;5100745;28;20010;-83
2021/10/18 01:45:11;;;;;;;;;;;;;;;;;;5100768;28;20023;-82
2021/10/18 01:47:36;;;;;;;;;;;;;;;;;;5100530;28;19916;-83
2021/10/18 01:50:09;;;;;;;;;;;;;;;;;;5098454;28;19991;-83
2021/10/18 01:52:34;;;;;;;;;;;;;;;;;;5099409;28;19923;-82
2021/10/18 01:54:59;;;;;;;;;;;;;;;;;;5097876;28;19907;-84
2021/10/18 01:57:24;;;;;;;;;;;;;;;;;;5098489;28;19908;-82
2021/10/18 01:59:50;;;;;;;;;;;;;;;;;;5097706;28;20342;-82
2021/10/18 02:02:15;;;;;;;;;;;;;;;;;;5097537;28;20242;-83
2021/10/18 02:04:40;;;;;;;;;;;;;;;;;;5098622;28;19907;-82
2021/10/18 02:07:06;;;;;;;;;;;;;;;;;;5102206;28;19965;-82
2021/10/18 02:09:31;;;;;;;;;;;;;;;;;;5102642;28;19934;-83
2021/10/18 02:11:56;;;;;;;;;;;;;;;;;;5103600;28;19908;-82
2021/10/18 02:14:21;;;;;;;;;;;;;;;;;;5100357;28;20265;-82
2021/10/18 02:16:47;;;;;;;;;;;;;;;;;;5099286;28;19907;-82
2021/10/18 02:19:12;;;;;;;;;;;;;;;;;;5098230;28;19993;-82
2021/10/18 02:21:37;;;;;;;;;;;;;;;;;;5097330;28;19916;-83
2021/10/18 02:24:03;;;;;;;;;;;;;;;;;;5098030;28;20314;-83
2021/10/18 02:26:28;;;;;;;;;;;;;;;;;;5098882;28;19919;-84
2021/10/18 02:28:53;;;;;;;;;;;;;;;;;;5098564;28;19908;-81
2021/10/18 02:31:19;;;;;;;;;;;;;;;;;;5114385;28;19911;-81
2021/10/18 02:33:44;;;;;;;;;;;;;;;;;;5121081;28;19971;-81
2021/10/18 02:36:10;;;;;;;;;;;;;;;;;;5117621;28;19923;-82
2021/10/18 02:38:35;;;;;;;;;;;;;;;;;;5121423;28;20318;-82
2021/10/18 02:41:00;;;;;;;;;;;;;;;;;;5099989;28;20007;-83
2021/10/18 02:43:26;;;;;;;;;;;;;;;;;;5099723;28;20019;-82
2021/10/18 02:45:51;;;;;;;;;;;;;;;;;;5116344;28;19908;-81
2021/10/18 02:48:16;;;;;;;;;;;;;;;;;;5101529;28;19954;-81
2021/10/18 02:50:42;;;;;;;;;;;;;;;;;;5111172;28;19899;-82
2021/10/18 02:53:07;;;;;;;;;;;;;;;;;;5117155;28;19908;-81
2021/10/18 02:55:32;;;;;;;;;;;;;;;;;;5115093;28;19912;-81
2021/10/18 02:57:57;;;;;;;;;;;;;;;;;;5106682;28;19947;-81
2021/10/18 03:00:23;;;;;;;;;;;;;;;;;;5102298;28;19916;-82
2021/10/18 03:02:48;;;;;;;;;;;;;;;;;;5105215;28;19998;-84
2021/10/18 03:05:14;;;;;;;;;;;;;;;;;;5104960;28;19919;-82
2021/10/18 03:07:39;;;;;;;;;;;;;;;;;;5105474;28;19919;-83
2021/10/18 03:10:04;;;;;;;;;;;;;;;;;;5105300;28;19908;-82
2021/10/18 03:12:30;;;;;;;;;;;;;;;;;;5104216;28;19919;-82
2021/10/18 03:14:55;;;;;;;;;;;;;;;;;;5106471;28;19908;-82
2021/10/18 03:17:20;;;;;;;;;;;;;;;;;;5116662;28;19995;-82
2021/10/18 03:19:46;;;;;;;;;;;;;;;;;;5117914;28;19923;-81
2021/10/18 03:22:11;;;;;;;;;;;;;;;;;;5118202;28;19939;-82
2021/10/18 03:24:36;;;;;;;;;;;;;;;;;;5116666;28;19892;-84
2021/10/18 03:27:02;;;;;;;;;;;;;;;;;;5118398;28;19955;-82
2021/10/18 03:29:27;;;;;;;;;;;;;;;;;;5118525;28;19892;-83
2021/10/18 03:31:52;;;;;;;;;;;;;;;;;;5116615;28;19911;-82
2021/10/18 03:34:18;;;;;;;;;;;;;;;;;;5132791;28;20248;-83
2021/10/18 03:36:43;;;;;;;;;;;;;;;;;;5116155;28;19923;-84
2021/10/18 03:39:08;;;;;;;;;;;;;;;;;;5116917;28;20254;-82
2021/10/18 03:41:33;;;;;;;;;;;;;;;;;;5117258;28;19912;-82
2021/10/18 03:44:01;;;;;;;;;;;;;;;;;;5118016;28;19935;-82
2021/10/18 03:46:26;;;;;;;;;;;;;;;;;;5117701;28;19933;-83
2021/10/18 03:48:51;;;;;;;;;;;;;;;;;;5116497;28;19916;-83
2021/10/18 03:51:17;;;;;;;;;;;;;;;;;;5112977;28;19977;-83
2021/10/18 03:53:42;;;;;;;;;;;;;;;;;;5109487;28;19908;-83
2021/10/18 03:56:07;;;;;;;;;;;;;;;;;;5106467;28;19908;-83
2021/10/18 03:58:32;;;;;;;;;;;;;;;;;;5105444;28;19978;-83
2021/10/18 04:00:57;;;;;;;;;;;;;;;;;;5106473;28;20003;-82
2021/10/18 04:03:23;;;;;;;;;;;;;;;;;;5109050;28;19923;-81
2021/10/18 04:05:48;;;;;;;;;;;;;;;;;;5114737;28;19934;-82
2021/10/18 04:08:13;;;;;;;;;;;;;;;;;;5116332;28;19915;-82
2021/10/18 04:10:38;;;;;;;;;;;;;;;;;;5116309;28;19979;-82
2021/10/18 04:13:04;;;;;;;;;;;;;;;;;;5115899;28;19945;-82
2021/10/18 04:15:29;;;;;;;;;;;;;;;;;;5115408;28;19919;-82
2021/10/18 04:17:55;;;;;;;;;;;;;;;;;;5113700;28;19919;-80
2021/10/18 04:20:20;;;;;;;;;;;;;;;;;;5111433;28;19916;-82
2021/10/18 04:22:48;;;;;;;;;;;;;;;;;;5099360;28;19908;-83
2021/10/18 04:25:14;;;;;;;;;;;;;;;;;;5101183;28;19938;-82
2021/10/18 04:27:40;;;;;;;;;;;;;;;;;;5100360;28;20338;-82
2021/10/18 04:30:05;;;;;;;;;;;;;;;;;;5111782;28;19974;-83
2021/10/18 04:32:31;;;;;;;;;;;;;;;;;;5116462;28;20333;-82
2021/10/18 04:34:56;;;;;;;;;;;;;;;;;;5116729;28;19938;-82
2021/10/18 04:37:21;;;;;;;;;;;;;;;;;;5114101;28;19927;-82
2021/10/18 04:39:46;;;;;;;;;;;;;;;;;;5100479;28;20314;-82
2021/10/18 04:42:12;;;;;;;;;;;;;;;;;;5098557;28;20321;-82
2021/10/18 04:44:37;;;;;;;;;;;;;;;;;;5117640;28;19908;-83
2021/10/18 04:47:03;;;;;;;;;;;;;;;;;;5101740;28;20010;-82
2021/10/18 04:49:28;;;;;;;;;;;;;;;;;;5100723;28;19944;-82
2021/10/18 04:51:54;;;;;;;;;;;;;;;;;;5100213;28;19914;-82
2021/10/18 04:54:19;;;;;;;;;;;;;;;;;;5101728;28;20002;-82
2021/10/18 04:56:44;;;;;;;;;;;;;;;;;;5100634;28;19908;-83
2021/10/18 04:59:09;;;;;;;;;;;;;;;;;;5100365;28;20018;-83
2021/10/18 05:01:35;;;;;;;;;;;;;;;;;;5101463;28;20397;-82
2021/10/18 05:04:00;;;;;;;;;;;;;;;;;;5102205;28;20391;-82
2021/10/18 05:06:25;;;;;;;;;;;;;;;;;;5099709;28;19919;-81
2021/10/18 05:08:53;;;;;;;;;;;;;;;;;;5102871;28;20261;-82
2021/10/18 05:11:18;;;;;;;;;;;;;;;;;;5101853;28;19908;-80
2021/10/18 05:13:43;;;;;;;;;;;;;;;;;;5101911;28;20026;-82
2021/10/18 05:16:09;;;;;;;;;;;;;;;;;;5101210;28;19951;-83
2021/10/18 05:18:34;;;;;;;;;;;;;;;;;;5102369;28;20333;-81
2021/10/18 05:21:00;;;;;;;;;;;;;;;;;;5101097;28;19934;-83
2021/10/18 05:23:25;;;;;;;;;;;;;;;;;;5099539;28;19915;-83
2021/10/18 05:25:51;;;;;;;;;;;;;;;;;;5100793;28;19908;-81
2021/10/18 05:28:16;;;;;;;;;;;;;;;;;;5101643;28;20227;-82
2021/10/18 05:30:41;;;;;;;;;;;;;;;;;;5100155;28;19916;-84
2021/10/18 05:33:07;;;;;;;;;;;;;;;;;;5099412;28;19908;-83
2021/10/18 05:35:32;;;;;;;;;;;;;;;;;;5100666;28;19926;-82
2021/10/18 05:38:05;;;;;;;;;;;;;;;;;;5101388;28;20312;-82
2021/10/18 05:40:33;;;;;;;;;;;;;;;;;;5101263;28;19912;-82
2021/10/18 05:42:59;;;;;;;;;;;;;;;;;;5099387;28;19912;-83
2021/10/18 05:45:24;;;;;;;;;;;;;;;;;;5100430;28;20298;-82
2021/10/18 05:47:51;;;;;;;;;;;;;;;;;;5099943;28;19976;-82
2021/10/18 05:50:16;;;;;;;;;;;;;;;;;;5100314;28;19908;-84
2021/10/18 05:52:41;;;;;;;;;;;;;;;;;;5100016;28;20006;-82
2021/10/18 05:55:06;;;;;;;;;;;;;;;;;;5100145;28;19951;-83
2021/10/18 05:57:32;;;;;;;;;;;;;;;;;;5099197;28;20028;-83
2021/10/18 05:59:57;;;;;;;;;;;;;;;;;;5098438;28;19923;-83
2021/10/18 06:02:22;;;;;;;;;;;;;;;;;;5098736;28;20286;-82
2021/10/18 06:04:47;;;;;;;;;;;;;;;;;;5098200;28;19908;-82
2021/10/18 06:07:12;;;;;;;;;;;;;;;;;;5097709;28;19927;-84
2021/10/18 06:09:38;;;;;;;;;;;;;;;;;;5097520;28;19908;-83
2021/10/18 06:12:04;;;;;;;;;;;;;;;;;;5097292;28;19965;-83
2021/10/18 06:14:29;;;;;;;;;;;;;;;;;;5098269;28;19915;-82
2021/10/18 06:16:54;;;;;;;;;;;;;;;;;;5097474;28;19908;-85
2021/10/18 06:19:20;;;;;;;;;;;;;;;;;;5098200;28;19912;-84
2021/10/18 06:21:45;;;;;;;;;;;;;;;;;;5097319;28;19915;-83
2021/10/18 06:24:10;;;;;;;;;;;;;;;;;;5098393;28;19934;-83
2021/10/18 06:26:35;;;;;;;;;;;;;;;;;;5098486;28;19903;-84
2021/10/18 06:29:01;;;;;;;;;;;;;;;;;;5097150;28;19947;-82
2021/10/18 06:31:26;;;;;;;;;;;;;;;;;;5098673;28;19908;-84
2021/10/18 06:33:51;;;;;;;;;;;;;;;;;;5115644;28;19908;-84
2021/10/18 06:36:16;;;;;;;;;;;;;;;;;;5100618;28;19907;-83
2021/10/18 06:38:42;;;;;;;;;;;;;;;;;;5120320;28;19900;-84
2021/10/18 06:41:07;;;;;;;;;;;;;;;;;;5119790;28;19907;-85
2021/10/18 06:43:32;;;;;;;;;;;;;;;;;;5128411;28;19915;-84
2021/10/18 06:45:59;;;;;;;;;;;;;;;;;;5099696;28;20001;-83
2021/10/18 06:48:24;;;;;;;;;;;;;;;;;;5097170;28;19923;-82
2021/10/18 06:50:49;;;;;;;;;;;;;;;;;;5098207;28;19992;-83
2021/10/18 06:53:17;;;;;;;;;;;;;;;;;;5098615;28;20016;-83
2021/10/18 06:55:43;;;;;;;;;;;;;;;;;;5097652;28;19908;-83
2021/10/18 06:58:08;;;;;;;;;;;;;;;;;;5098373;28;19908;-84
2021/10/18 07:00:34;;;;;;;;;;;;;;;;;;5096356;28;20021;-84
2021/10/18 07:02:59;;;;;;;;;;;;;;;;;;5097697;28;19915;-83
2021/10/18 07:05:25;;;;;;;;;;;;;;;;;;5099870;28;19907;-81
2021/10/18 07:07:50;;;;;;;;;;;;;;;;;;5099168;28;20249;-83
2021/10/18 07:10:15;;;;;;;;;;;;;;;;;;5113729;28;19972;-83
2021/10/18 07:12:40;;;;;;;;;;;;;;;;;;5098111;28;19946;-83
2021/10/18 07:15:06;;;;;;;;;;;;;;;;;;5096350;28;20027;-83
2021/10/18 07:17:31;;;;;;;;;;;;;;;;;;5096692;28;19919;-84
2021/10/18 07:19:57;;;;;;;;;;;;;;;;;;5097460;28;19927;-84
2021/10/18 07:22:28;;;;;;;;;;;;;;;;;;5097581;28;19908;-84
2021/10/18 07:24:54;;;;;;;;;;;;;;;;;;5096372;28;20377;-81
2021/10/18 07:27:19;;;;;;;;;;;;;;;;;;5096140;28;19907;-81
2021/10/18 07:29:45;;;;;;;;;;;;;;;;;;5096118;28;19918;-83
2021/10/18 07:32:10;;;;;;;;;;;;;;;;;;5096890;28;20250;-83
2021/10/18 07:34:36;;;;;;;;;;;;;;;;;;5095929;28;19916;-83
2021/10/18 07:37:02;;;;;;;;;;;;;;;;;;5097221;28;20014;-83
2021/10/18 07:39:27;;;;;;;;;;;;;;;;;;5098057;28;19922;-82
2021/10/18 07:41:55;;;;;;;;;;;;;;;;;;5096008;28;19908;-82
2021/10/18 07:44:21;;;;;;;;;;;;;;;;;;5096955;28;20040;-81
2021/10/18 07:46:47;;;;;;;;;;;;;;;;;;5095915;28;19908;-85
2021/10/18 07:49:12;;;;;;;;;;;;;;;;;;5096709;28;19920;-82
2021/10/18 07:51:38;;;;;;;;;;;;;;;;;;5096637;28;19919;-83
2021/10/18 07:54:03;;;;;;;;;;;;;;;;;;5095797;28;19959;-83
2021/10/18 07:56:29;;;;;;;;;;;;;;;;;;5115320;28;20006;-83
2021/10/18 07:58:54;;;;;;;;;;;;;;;;;;5099740;28;19912;-81
2021/10/18 08:01:19;;;;;;;;;;;;;;;;;;5097065;28;19908;-83
2021/10/18 08:03:45;;;;;;;;;;;;;;;;;;5096408;28;19908;-82
2021/10/18 08:06:11;;;;;;;;;;;;;;;;;;5098716;28;19968;-83
2021/10/18 08:08:44;;;;;;;;;;;;;;;;;;5098022;28;19919;-83
2021/10/18 08:11:09;;;;;;;;;;;;;;;;;;5099012;28;20246;-82
2021/10/18 08:13:34;;;;;;;;;;;;;;;;;;5098836;28;19908;-83
2021/10/18 08:16:03;;;;;;;;;;;;;;;;;;5104797;28;19915;-83
2021/10/18 08:18:28;;;;;;;;;;;;;;;;;;5100648;28;19951;-83
2021/10/18 08:20:53;;;;;;;;;;;;;;;;;;5104249;28;20265;-81
2021/10/18 08:23:18;;;;;;;;;;;;;;;;;;5103835;28;19919;-82
2021/10/18 08:25:44;;;;;;;;;;;;;;;;;;5103151;28;19918;-83
2021/10/18 08:28:09;;;;;;;;;;;;;;;;;;5103326;28;20361;-83
2021/10/18 08:30:35;;;;;;;;;;;;;;;;;;5104945;28;20352;-81
2021/10/18 08:33:00;;;;;;;;;;;;;;;;;;5104984;28;20352;-82
2021/10/18 08:35:25;;;;;;;;;;;;;;;;;;5104147;28;19919;-82
2021/10/18 08:40:40;;;;;;;;;;;;;;;;;;5105563;28;20030;-82
2021/10/18 08:43:26;;;;;;;;;;;;;;;;;;5107081;28;20353;-81
2021/10/18 08:45:52;;;;;;;;;;;;;;;;;;5108896;28;19907;-81
2021/10/18 08:48:18;;;;;;;;;;;;;;;;;;5109836;28;19916;-81
2021/10/18 08:50:44;;;;;;;;;;;;;;;;;;5125818;28;20348;-83
2021/10/18 08:53:09;;;;;;;;;;;;;;;;;;5111220;28;19907;-83
2021/10/18 08:55:35;;;;;;;;;;;;;;;;;;5116210;28;19923;-81
2021/10/18 08:58:01;;;;;;;;;;;;;;;;;;5120516;28;19908;-83
2021/10/18 09:00:42;;;;;;;;;;;;;;;;;;5122648;28;19900;-82
2021/10/18 09:03:23;;;;;;;;;;;;;;;;;;5125227;28;19945;-81
2021/10/18 09:05:49;;;;;;;;;;;;;;;;;;5125024;28;19900;-82
2021/10/18 09:08:33;;;;;;;;;;;;;;;;;;5113885;28;19919;-84
2021/10/18 09:11:18;;;;;;;;;;;;;;;;;;5106689;28;19916;-81
2021/10/18 09:13:45;;;;;;;;;;;;;;;;;;5106019;28;19908;-82
2021/10/18 09:16:11;;;;;;;;;;;;;;;;;;5103907;28;19978;-83
2021/10/18 09:18:40;;;;;;;;;;;;;;;;;;5104569;28;19984;-84
2021/10/18 09:21:06;;;;;;;;;;;;;;;;;;5111291;28;19992;-82
2021/10/18 09:23:36;;;;;;;;;;;;;;;;;;5106125;28;19943;-82
2021/10/18 09:26:06;;;;;;;;;;;;;;;;;;5105073;28;19908;-83
2021/10/18 09:28:32;;;;;;;;;;;;;;;;;;5106790;28;19908;-81
2021/10/18 09:30:57;;;;;;;;;;;;;;;;;;5106735;28;19907;-82
2021/10/18 09:33:26;;;;;;;;;;;;;;;;;;5107974;28;19908;-82
2021/10/18 09:35:52;;;;;;;;;;;;;;;;;;5107129;28;19964;-82
2021/10/18 09:38:20;;;;;;;;;;;;;;;;;;5113239;28;19907;-84
2021/10/18 09:40:45;;;;;;;;;;;;;;;;;;5100200;28;20048;-82
2021/10/18 09:43:14;;;;;;;;;;;;;;;;;;5107591;28;19923;-82
2021/10/18 09:46:01;;;;;;;;;;;;;;;;;;5112198;28;19900;-80
2021/10/18 10:53:33;;;;;;;;;;;;;;;;;;5100999;28;19908;-85
2021/10/18 10:56:00;;;;;;;;;;;;;;;;;;5098198;28;19950;-85
2021/10/18 10:58:37;;;;;;;;;;;;;;;;;;5099142;28;19938;-83
2021/10/18 11:01:03;;;;;;;;;;;;;;;;;;5114815;28;20357;-85
2021/10/18 11:03:40;;;;;;;;;;;;;;;;;;5098701;28;19908;-85
2021/10/18 11:06:07;;;;;;;;;;;;;;;;;;5098470;28;19919;-83
2021/10/18 11:08:33;;;;;;;;;;;;;;;;;;5098529;28;19908;-82
2021/10/18 11:11:28;;;;;;;;;;;;;;;;;;5097708;28;19919;-80
2021/10/18 11:13:54;;;;;;;;;;;;;;;;;;5088185;28;19908;-80
2021/10/18 11:16:24;;;;;;;;;;;;;;;;;;5098342;28;20292;-80
2021/10/18 11:18:50;;;;;;;;;;;;;;;;;;5105866;28;19908;-81
2021/10/18 11:21:20;;;;;;;;;;;;;;;;;;5109084;28;19947;-80
2021/10/18 11:23:56;;;;;;;;;;;;;;;;;;5109933;28;19934;-81
2021/10/18 11:26:22;;;;;;;;;;;;;;;;;;5106162;28;19995;-82
2021/10/18 11:28:51;;;;;;;;;;;;;;;;;;5103703;28;19916;-79
2021/10/18 11:31:16;;;;;;;;;;;;;;;;;;5099503;28;19908;-81
2021/10/18 11:33:57;;;;;;;;;;;;;;;;;;5098289;28;19908;-81
2021/10/18 11:36:22;;;;;;;;;;;;;;;;;;5097072;28;19919;-81
2021/10/18 11:38:48;;;;;;;;;;;;;;;;;;5097850;28;19908;-81
2021/10/18 11:41:13;;;;;;;;;;;;;;;;;;5097801;28;20379;-82
2021/10/18 11:43:40;;;;;;;;;;;;;;;;;;5096965;28;20311;-81
2021/10/18 11:46:05;;;;;;;;;;;;;;;;;;5097382;28;19944;-81
2021/10/18 11:48:31;;;;;;;;;;;;;;;;;;5097589;28;20254;-83
2021/10/18 11:50:58;;;;;;;;;;;;;;;;;;5097583;28;19965;-81
2021/10/18 11:53:25;;;;;;;;;;;;;;;;;;5096661;28;20291;-83
2021/10/18 11:55:51;;;;;;;;;;;;;;;;;;5096290;28;19908;-81
2021/10/18 11:58:21;;;;;;;;;;;;;;;;;;5096255;28;19908;-81
2021/10/18 12:00:47;;;;;;;;;;;;;;;;;;5096942;28;19912;-83
2021/10/18 12:03:14;;;;;;;;;;;;;;;;;;5096604;28;19915;-85
2021/10/18 12:05:44;;;;;;;;;;;;;;;;;;5097866;28;19908;-83
2021/10/18 12:08:13;;;;;;;;;;;;;;;;;;5098168;28;19908;-83
2021/10/18 12:10:39;;;;;;;;;;;;;;;;;;5096224;28;19918;-82
2021/10/18 12:13:07;;;;;;;;;;;;;;;;;;5096538;28;19912;-83
2021/10/18 12:15:33;;;;;;;;;;;;;;;;;;5096727;28;19914;-84
2021/10/18 12:17:59;;;;;;;;;;;;;;;;;;5097316;28;19969;-85
2021/10/18 12:20:25;;;;;;;;;;;;;;;;;;5097233;28;19927;-83
2021/10/18 12:23:06;;;;;;;;;;;;;;;;;;5114730;28;20242;-85
2021/10/18 12:25:32;;;;;;;;;;;;;;;;;;5096368;28;19912;-84
2021/10/18 12:28:00;;;;;;;;;;;;;;;;;;5097355;28;19933;-85
2021/10/18 12:30:37;;;;;;;;;;;;;;;;;;5096782;28;19915;-84
2021/10/18 12:33:09;;;;;;;;;;;;;;;;;;5097892;28;19908;-83
2021/10/18 12:35:35;;;;;;;;;;;;;;;;;;5097578;28;19923;-85
2021/10/18 12:38:07;;;;;;;;;;;;;;;;;;5096919;28;19908;-82
2021/10/18 12:40:32;;;;;;;;;;;;;;;;;;5097466;28;19959;-82
2021/10/18 12:42:57;;;;;;;;;;;;;;;;;;5097873;28;19912;-84
2021/10/18 12:45:23;;;;;;;;;;;;;;;;;;5097105;28;19908;-84
2021/10/18 12:47:56;;;;;;;;;;;;;;;;;;5097287;28;19987;-84
2021/10/18 12:50:22;;;;;;;;;;;;;;;;;;5096093;28;19947;-84
2021/10/18 12:52:58;;;;;;;;;;;;;;;;;;5114295;28;20028;-83
2021/10/18 12:55:25;;;;;;;;;;;;;;;;;;5098034;28;19963;-84
2021/10/18 12:57:51;;;;;;;;;;;;;;;;;;5099021;28;19908;-84
2021/10/18 13:00:27;;;;;;;;;;;;;;;;;;5097769;28;19962;-83
2021/10/18 13:02:52;;;;;;;;;;;;;;;;;;5097932;28;19908;-83
2021/10/18 13:05:22;;;;;;;;;;;;;;;;;;5099205;28;19914;-84
2021/10/18 13:07:51;;;;;;;;;;;;;;;;;;5101428;28;19919;-82
2021/10/18 13:10:16;;;;;;;;;;;;;;;;;;5100689;28;19915;-83
2021/10/18 13:12:42;;;;;;;;;;;;;;;;;;5100370;28;20261;-82
2021/10/18 13:15:08;;;;;;;;;;;;;;;;;;5100955;28;19926;-81
2021/10/18 13:17:33;;;;;;;;;;;;;;;;;;5101144;28;19908;-83
2021/10/18 13:19:58;;;;;;;;;;;;;;;;;;5100841;28;19923;-80
2021/10/18 13:22:23;;;;;;;;;;;;;;;;;;5100628;28;19912;-82
2021/10/18 13:24:49;;;;;;;;;;;;;;;;;;5100171;28;19919;-82
2021/10/18 13:27:15;;;;;;;;;;;;;;;;;;5100299;28;19994;-82
2021/10/18 13:29:40;;;;;;;;;;;;;;;;;;5099869;28;19919;-81
2021/10/18 13:32:06;;;;;;;;;;;;;;;;;;5099963;28;20330;-83
2021/10/18 13:34:32;;;;;;;;;;;;;;;;;;5099536;28;19908;-82
2021/10/18 13:36:58;;;;;;;;;;;;;;;;;;5100388;28;19907;-82
2021/10/18 13:39:23;;;;;;;;;;;;;;;;;;5101724;28;19912;-82
2021/10/18 13:41:48;;;;;;;;;;;;;;;;;;5099589;28;19908;-83
2021/10/18 13:44:13;;;;;;;;;;;;;;;;;;5100940;28;19920;-82
2021/10/18 13:46:40;;;;;;;;;;;;;;;;;;5098907;28;20358;-82
2021/10/18 13:49:06;;;;;;;;;;;;;;;;;;5098565;28;19916;-82
2021/10/18 13:51:31;;;;;;;;;;;;;;;;;;5098575;28;19999;-82
2021/10/18 13:53:57;;;;;;;;;;;;;;;;;;5099681;28;20266;-82
2021/10/18 13:56:22;;;;;;;;;;;;;;;;;;5098357;28;19916;-82
2021/10/18 13:58:47;;;;;;;;;;;;;;;;;;5098040;28;19907;-82
2021/10/18 14:01:16;;;;;;;;;;;;;;;;;;5098226;28;19971;-82
2021/10/18 14:03:41;;;;;;;;;;;;;;;;;;5101301;28;19907;-82
2021/10/18 14:06:07;;;;;;;;;;;;;;;;;;5100866;28;19919;-82
2021/10/18 14:08:33;;;;;;;;;;;;;;;;;;5098947;28;19930;-82
2021/10/18 14:10:58;;;;;;;;;;;;;;;;;;5099580;28;19920;-82
2021/10/18 14:13:23;;;;;;;;;;;;;;;;;;5098576;28;20318;-82
2021/10/18 14:15:48;;;;;;;;;;;;;;;;;;5098865;28;20257;-82
2021/10/18 14:18:13;;;;;;;;;;;;;;;;;;5101234;28;19943;-82
2021/10/18 14:20:39;;;;;;;;;;;;;;;;;;5115486;28;19911;-82
2021/10/18 14:23:05;;;;;;;;;;;;;;;;;;5112247;28;19919;-82
2021/10/18 14:25:31;;;;;;;;;;;;;;;;;;5101887;28;19915;-82
2021/10/18 14:27:56;;;;;;;;;;;;;;;;;;5099101;28;19995;-81
2021/10/18 14:30:21;;;;;;;;;;;;;;;;;;5102292;28;19912;-81
2021/10/18 14:32:47;;;;;;;;;;;;;;;;;;5107730;28;19915;-82
2021/10/18 14:35:12;;;;;;;;;;;;;;;;;;5108761;28;19908;-81
2021/10/18 14:37:37;;;;;;;;;;;;;;;;;;5116538;28;19961;-81
2021/10/18 14:40:04;;;;;;;;;;;;;;;;;;5108928;28;19931;-81
2021/10/18 14:42:30;;;;;;;;;;;;;;;;;;5118521;28;19908;-81
2021/10/18 14:44:55;;;;;;;;;;;;;;;;;;5117946;28;19892;-80
2021/10/18 14:47:21;;;;;;;;;;;;;;;;;;5107939;28;19994;-82
2021/10/18 14:49:46;;;;;;;;;;;;;;;;;;5099630;28;19908;-80
2021/10/18 14:52:12;;;;;;;;;;;;;;;;;;5098041;28;19987;-81
2021/10/18 14:54:37;;;;;;;;;;;;;;;;;;5099306;28;19912;-80
2021/10/18 14:57:03;;;;;;;;;;;;;;;;;;5097570;28;19908;-81
2021/10/18 14:59:28;;;;;;;;;;;;;;;;;;5098065;28;19923;-80
2021/10/18 15:01:53;;;;;;;;;;;;;;;;;;5098287;28;19919;-79
2021/10/18 15:04:18;;;;;;;;;;;;;;;;;;5098549;28;19908;-81
2021/10/18 15:06:44;;;;;;;;;;;;;;;;;;5114134;28;19916;-81
2021/10/18 15:09:09;;;;;;;;;;;;;;;;;;5098222;28;19915;-81
2021/10/18 15:11:34;;;;;;;;;;;;;;;;;;5098661;28;20341;-82
2021/10/18 15:14:01;;;;;;;;;;;;;;;;;;5098837;28;19983;-82
2021/10/18 15:16:26;;;;;;;;;;;;;;;;;;5098707;28;20024;-82
2021/10/18 15:18:51;;;;;;;;;;;;;;;;;;5097709;28;20188;-82
2021/10/18 15:21:17;;;;;;;;;;;;;;;;;;5097671;28;20322;-82
2021/10/18 15:23:42;;;;;;;;;;;;;;;;;;5097989;28;19977;-83
2021/10/18 15:26:07;;;;;;;;;;;;;;;;;;5097732;28;19912;-82
2021/10/18 15:28:34;;;;;;;;;;;;;;;;;;5113730;28;19908;-82
2021/10/18 15:30:59;;;;;;;;;;;;;;;;;;5097269;28;19985;-82
2021/10/18 15:33:24;;;;;;;;;;;;;;;;;;5096554;28;19912;-81
2021/10/18 15:35:49;;;;;;;;;;;;;;;;;;5097987;28;19912;-81
2021/10/18 15:38:15;;;;;;;;;;;;;;;;;;5096644;28;20264;-83
2021/10/18 15:40:40;;;;;;;;;;;;;;;;;;5097339;28;20336;-82
2021/10/18 15:43:05;;;;;;;;;;;;;;;;;;5097282;28;19907;-82
2021/10/18 15:45:31;;;;;;;;;;;;;;;;;;5098285;28;19919;-83
2021/10/18 15:47:59;;;;;;;;;;;;;;;;;;5096355;28;19916;-81
2021/10/18 15:50:24;;;;;;;;;;;;;;;;;;5098768;28;19907;-83
2021/10/18 15:52:49;;;;;;;;;;;;;;;;;;5100689;28;19915;-81
2021/10/18 15:55:15;;;;;;;;;;;;;;;;;;5098582;28;19912;-82
2021/10/18 15:57:40;;;;;;;;;;;;;;;;;;5099038;28;19919;-84
2021/10/18 16:00:06;;;;;;;;;;;;;;;;;;5098467;28;19912;-84
2021/10/18 16:02:31;;;;;;;;;;;;;;;;;;5098737;28;19958;-84
2021/10/18 16:04:57;;;;;;;;;;;;;;;;;;5098280;28;19908;-83
2021/10/18 16:07:22;;;;;;;;;;;;;;;;;;5098700;28;19998;-82
2021/10/18 16:09:47;;;;;;;;;;;;;;;;;;5098653;28;19942;-83
2021/10/18 16:12:13;;;;;;;;;;;;;;;;;;5098345;28;19967;-85
2021/10/18 16:14:38;;;;;;;;;;;;;;;;;;5100015;28;20253;-82
2021/10/18 16:17:04;;;;;;;;;;;;;;;;;;5100744;28;19908;-82
2021/10/18 16:19:29;;;;;;;;;;;;;;;;;;5108661;28;19900;-82
2021/10/18 16:21:54;;;;;;;;;;;;;;;;;;5119641;28;19946;-83
2021/10/18 16:24:20;;;;;;;;;;;;;;;;;;5118557;28;19907;-82
2021/10/18 16:26:45;;;;;;;;;;;;;;;;;;5118632;28;19926;-82
2021/10/18 16:29:11;;;;;;;;;;;;;;;;;;5118726;28;19955;-81
2021/10/18 16:31:37;;;;;;;;;;;;;;;;;;5107747;28;19916;-81
2021/10/18 16:34:02;;;;;;;;;;;;;;;;;;5095811;28;19908;-82
2021/10/18 16:36:27;;;;;;;;;;;;;;;;;;5096056;28;19934;-82
2021/10/18 16:38:53;;;;;;;;;;;;;;;;;;5095741;28;19915;-82
2021/10/18 16:41:18;;;;;;;;;;;;;;;;;;5098193;28;19919;-83
2021/10/18 16:43:43;;;;;;;;;;;;;;;;;;5098863;28;20337;-82
2021/10/18 16:46:09;;;;;;;;;;;;;;;;;;5098615;28;19908;-82
2021/10/18 16:48:34;;;;;;;;;;;;;;;;;;5099143;28;19923;-82
2021/10/18 16:50:59;;;;;;;;;;;;;;;;;;5100232;28;19908;-83
2021/10/18 16:53:25;;;;;;;;;;;;;;;;;;5099277;28;20039;-82
2021/10/18 16:55:50;;;;;;;;;;;;;;;;;;5099983;28;19912;-81
2021/10/18 16:58:16;;;;;;;;;;;;;;;;;;5100411;28;19908;-84
2021/10/18 17:00:43;;;;;;;;;;;;;;;;;;5116309;28;19912;-82
2021/10/18 17:03:08;;;;;;;;;;;;;;;;;;5100397;28;19908;-83
2021/10/18 17:05:34;;;;;;;;;;;;;;;;;;5100057;28;19908;-83
2021/10/18 17:07:59;;;;;;;;;;;;;;;;;;5100034;28;19908;-83
2021/10/18 17:10:25;;;;;;;;;;;;;;;;;;5100141;28;19923;-83
2021/10/18 17:12:52;;;;;;;;;;;;;;;;;;5099982;28;19908;-83
2021/10/18 17:15:17;;;;;;;;;;;;;;;;;;5098872;28;20247;-86
2021/10/18 17:17:43;;;;;;;;;;;;;;;;;;5098398;28;19957;-82
2021/10/18 17:20:09;;;;;;;;;;;;;;;;;;5099961;28;19912;-83
2021/10/18 17:22:34;;;;;;;;;;;;;;;;;;5098862;28;20302;-85
2021/10/18 17:24:59;;;;;;;;;;;;;;;;;;5098494;28;19915;-83
2021/10/18 17:27:25;;;;;;;;;;;;;;;;;;5099430;28;19907;-83
2021/10/18 17:29:50;;;;;;;;;;;;;;;;;;5097957;28;20254;-83
2021/10/18 17:32:15;;;;;;;;;;;;;;;;;;5098259;28;19996;-84
2021/10/18 17:34:44;;;;;;;;;;;;;;;;;;5099531;28;19947;-84
2021/10/18 17:37:10;;;;;;;;;;;;;;;;;;5099294;28;19973;-83
2021/10/18 17:39:35;;;;;;;;;;;;;;;;;;5099042;28;19916;-83
2021/10/18 17:42:00;;;;;;;;;;;;;;;;;;5099118;28;19908;-83
2021/10/18 17:44:25;;;;;;;;;;;;;;;;;;5099191;28;19908;-83
2021/10/18 17:46:52;;;;;;;;;;;;;;;;;;5098935;28;19999;-82